Time;durP1;ratioP1;P1;durP2;ratioP2;P2;SDS_P1;SDS_P2;PMS_P1;PMS_P2;Temp;Humidity;BMP_temperature;BMP_pressure;BME280_temperature;BME280_humidity;BME280_pressure;Samples;Min_cycle;Max_cycle;Signal;HPM_P1;HPM_P2
2023/02/18 00:00:12;;;;;;;27.77;20.90;;;13.30;99.90;;;;;;5009690;28;20045;-80
2023/02/18 00:02:38;;;;;;;31.45;23.23;;;13.20;99.90;;;;;;5030274;28;20033;-81
2023/02/18 00:05:05;;;;;;;31.00;22.85;;;13.30;99.90;;;;;;5003380;28;20040;-81
2023/02/18 00:07:35;;;;;;;28.77;21.63;;;13.40;99.90;;;;;;5038645;28;20026;-81
2023/02/18 00:10:01;;;;;;;30.92;23.90;;;13.40;99.90;;;;;;5004677;28;20049;-81
2023/02/18 00:12:27;;;;;;;32.83;22.45;;;13.40;99.90;;;;;;5000635;28;20044;-82
2023/02/18 00:14:53;;;;;;;29.80;22.45;;;13.50;99.90;;;;;;5007117;28;20052;-82
2023/02/18 00:17:19;;;;;;;29.92;21.38;;;13.40;99.90;;;;;;5005363;28;20403;-81
2023/02/18 00:19:45;;;;;;;28.58;22.38;;;13.40;99.90;;;;;;5005199;28;20060;-82
2023/02/18 00:22:11;;;;;;;27.90;22.88;;;13.30;99.90;;;;;;5008409;28;20426;-82
2023/02/18 00:24:37;;;;;;;27.38;21.73;;;13.30;99.90;;;;;;5006581;28;20034;-81
2023/02/18 00:27:03;;;;;;;28.25;21.55;;;13.30;99.90;;;;;;5025162;28;20474;-81
2023/02/18 00:29:30;;;;;;;23.40;20.30;;;13.30;99.90;;;;;;4996592;28;20060;-81
2023/02/18 00:31:56;;;;;;;25.55;20.60;;;13.30;99.90;;;;;;5003590;28;20034;-82
2023/02/18 00:34:22;;;;;;;27.20;20.98;;;13.20;99.90;;;;;;4994458;28;20045;-82
2023/02/18 00:36:48;;;;;;;24.52;20.45;;;13.20;99.90;;;;;;5004415;28;20041;-81
2023/02/18 00:39:14;;;;;;;24.63;19.73;;;13.30;99.90;;;;;;5003128;28;20483;-81
2023/02/18 00:41:40;;;;;;;23.92;19.73;;;13.20;99.90;;;;;;5004731;28;20045;-82
2023/02/18 00:44:06;;;;;;;23.50;21.00;;;13.20;99.90;;;;;;5007914;28;20057;-82
2023/02/18 00:46:33;;;;;;;24.45;19.52;;;13.20;99.90;;;;;;5014164;28;20038;-82
2023/02/18 00:48:59;;;;;;;22.88;19.48;;;13.20;99.90;;;;;;5039141;28;20034;-82
2023/02/18 00:51:25;;;;;;;22.92;20.42;;;13.10;99.90;;;;;;5014810;28;20057;-82
2023/02/18 00:53:51;;;;;;;23.48;20.13;;;13.10;99.90;;;;;;5011998;28;20030;-82
2023/02/18 00:56:17;;;;;;;23.52;20.38;;;13.10;99.90;;;;;;5011350;28;20034;-82
2023/02/18 00:58:43;;;;;;;23.27;20.65;;;13.10;99.90;;;;;;5005567;28;20049;-81
2023/02/18 01:01:10;;;;;;;22.63;19.73;;;13.00;99.90;;;;;;5004494;28;20034;-81
2023/02/18 01:03:36;;;;;;;20.83;18.63;;;13.10;99.90;;;;;;5007997;28;20048;-82
2023/02/18 01:06:03;;;;;;;23.55;20.23;;;13.10;99.90;;;;;;5035002;28;20030;-82
2023/02/18 01:08:30;;;;;;;20.90;18.77;;;13.10;99.90;;;;;;4999365;28;20041;-82
2023/02/18 01:10:57;;;;;;;21.25;18.98;;;13.10;99.90;;;;;;5011168;28;20038;-82
2023/02/18 01:13:23;;;;;;;20.98;18.83;;;13.10;99.90;;;;;;4997041;28;20039;-82
2023/02/18 01:15:49;;;;;;;19.95;18.13;;;13.10;99.90;;;;;;5006911;28;20042;-82
2023/02/18 01:18:15;;;;;;;19.70;17.80;;;13.00;99.90;;;;;;5014673;28;20030;-81
2023/02/18 01:20:42;;;;;;;19.30;17.40;;;13.00;99.90;;;;;;4998220;28;20051;-82
2023/02/18 01:23:08;;;;;;;19.75;17.48;;;13.10;99.90;;;;;;5003490;28;20038;-82
2023/02/18 01:25:34;;;;;;;19.33;17.30;;;13.10;99.90;;;;;;5004401;28;20034;-81
2023/02/18 01:28:00;;;;;;;19.25;17.35;;;13.10;99.90;;;;;;5042422;28;20036;-81
2023/02/18 01:30:27;;;;;;;19.30;17.45;;;13.10;99.90;;;;;;5008063;28;20038;-82
2023/02/18 01:32:54;;;;;;;19.70;17.73;;;13.20;99.90;;;;;;5000161;28;20048;-81
2023/02/18 01:35:20;;;;;;;17.95;16.27;;;13.20;99.90;;;;;;5012568;28;20029;-81
2023/02/18 01:37:46;;;;;;;18.55;16.65;;;13.20;99.90;;;;;;5009392;28;20038;-81
2023/02/18 01:40:14;;;;;;;19.83;17.27;;;13.20;99.90;;;;;;5012531;28;20037;-81
2023/02/18 01:42:41;;;;;;;19.30;17.33;;;13.20;99.90;;;;;;5002552;28;20042;-81
2023/02/18 01:45:37;;;;;;;19.92;17.83;;;13.20;99.90;;;;;;5017300;28;20029;-79
2023/02/18 01:48:23;;;;;;;19.05;17.02;;;13.20;99.90;;;;;;5003439;28;20042;-82
2023/02/18 01:50:56;;;;;;;18.77;16.98;;;13.10;99.90;;;;;;5010755;28;20049;-81
2023/02/18 01:53:27;;;;;;;19.50;17.45;;;13.00;99.90;;;;;;5008713;28;20470;-81
2023/02/18 01:55:53;;;;;;;18.33;16.00;;;13.10;99.90;;;;;;5007077;28;20030;-81
2023/02/18 01:58:19;;;;;;;19.15;17.05;;;13.00;99.90;;;;;;4997586;28;20042;-81
2023/02/18 02:00:45;;;;;;;17.38;15.45;;;13.00;99.90;;;;;;5002277;28;20403;-81
2023/02/18 02:03:11;;;;;;;16.85;15.25;;;13.00;99.90;;;;;;5028899;28;20038;-81
2023/02/18 02:05:37;;;;;;;15.45;13.95;;;13.00;99.90;;;;;;5042093;28;20034;-81
2023/02/18 02:08:04;;;;;;;13.80;12.52;;;12.90;99.90;;;;;;5009381;28;20044;-81
2023/02/18 02:10:52;;;;;;;11.10;10.20;;;12.90;99.90;;;;;;5027589;28;20046;-82
2023/02/18 02:13:34;;;;;;;8.88;8.18;;;12.70;99.90;;;;;;4998971;28;20033;-81
2023/02/18 02:16:10;;;;;;;9.88;9.07;;;12.70;99.90;;;;;;5010770;28;20042;-81
2023/02/18 02:18:53;;;;;;;9.60;8.80;;;12.70;99.90;;;;;;4994140;28;20042;-81
2023/02/18 02:22:00;;;;;;;8.73;8.13;;;12.60;99.90;;;;;;5015323;28;20051;-81
2023/02/18 02:24:59;;;;;;;9.57;8.98;;;12.40;99.90;;;;;;5009085;28;20439;-81
2023/02/18 02:27:52;;;;;;;7.85;7.35;;;12.40;99.90;;;;;;4929549;29;20040;-82
2023/02/18 02:30:37;;;;;;;8.07;7.57;;;12.30;99.90;;;;;;4926562;29;20055;-81
2023/02/18 02:33:11;;;;;;;7.55;7.10;;;12.30;99.90;;;;;;4944593;29;20043;-81
2023/02/18 02:35:43;;;;;;;9.35;8.57;;;12.40;99.90;;;;;;4940767;29;20046;-82
2023/02/18 02:38:19;;;;;;;9.38;8.88;;;12.50;99.90;;;;;;4918863;29;20043;-82
2023/02/18 02:41:12;;;;;;;9.35;8.80;;;12.40;99.90;;;;;;4903734;29;20051;-81
2023/02/18 02:44:02;;;;;;;10.25;9.65;;;12.50;99.90;;;;;;4929797;29;20039;-81
2023/02/18 02:46:37;;;;;;;11.18;10.48;;;12.50;99.90;;;;;;4940773;28;20042;-81
2023/02/18 02:49:19;;;;;;;9.65;9.13;;;12.50;99.90;;;;;;4922976;29;20030;-81
2023/02/18 02:52:00;;;;;;;;;;;12.50;99.90;;;;;;4925425;29;20717;-80
2023/02/18 02:54:26;;;;;;;10.88;10.15;;;12.60;99.90;;;;;;4939483;28;19910;-81
2023/02/18 02:57:12;;;;;;;10.05;9.45;;;12.60;99.90;;;;;;4925606;29;20535;-82
2023/02/18 02:59:40;;;;;;;8.70;8.10;;;12.60;99.90;;;;;;4932441;28;20043;-82
2023/02/18 03:02:12;;;;;;;9.50;8.93;;;12.60;99.90;;;;;;4927091;29;20039;-82
2023/02/18 03:04:44;;;;;;;8.50;7.90;;;12.50;99.90;;;;;;4949507;28;20452;-82
2023/02/18 03:07:16;;;;;;;8.05;7.55;;;12.50;99.90;;;;;;4981857;28;20057;-81
2023/02/18 03:10:01;;;;;;;8.93;8.23;;;12.50;99.90;;;;;;4991440;28;20039;-81
2023/02/18 03:12:36;;;;;;;8.65;8.00;;;12.40;99.90;;;;;;4972079;28;20483;-81
2023/02/18 03:15:26;;;;;;;8.10;7.50;;;12.40;99.90;;;;;;4993940;28;20368;-81
2023/02/18 03:18:01;;;;;;;6.72;6.32;;;12.50;99.90;;;;;;4997457;28;20033;-81
2023/02/18 03:20:33;;;;;;;7.43;6.82;;;12.40;99.90;;;;;;5014092;28;20061;-81
2023/02/18 03:22:59;;;;;;;6.82;6.43;;;12.50;99.90;;;;;;5006496;28;20033;-81
2023/02/18 03:25:26;;;;;;;6.70;6.32;;;12.40;99.90;;;;;;5002774;28;20072;-81
2023/02/18 03:27:55;;;;;;;7.32;6.93;;;12.30;99.90;;;;;;5014290;28;20068;-81
2023/02/18 03:30:31;;;;;;;6.55;6.15;;;12.30;99.90;;;;;;4993978;28;20055;-82
2023/02/18 03:33:00;;;;;;;8.23;7.78;;;12.30;99.90;;;;;;5009507;28;20029;-81
2023/02/18 03:35:27;;;;;;;7.65;7.18;;;12.40;99.90;;;;;;4997677;28;20029;-81
2023/02/18 03:38:27;;;;;;;7.32;6.82;;;12.40;99.90;;;;;;4979335;28;20043;-82
2023/02/18 03:40:53;;;;;;;6.47;6.18;;;12.50;99.90;;;;;;5004651;28;20038;-82
2023/02/18 03:43:19;;;;;;;5.65;5.35;;;12.50;99.90;;;;;;5017368;28;20053;-81
2023/02/18 03:45:45;;;;;;;5.55;5.20;;;12.50;99.90;;;;;;4986946;28;20045;-81
2023/02/18 03:48:11;;;;;;;5.40;5.10;;;12.50;99.90;;;;;;5000479;28;20037;-81
2023/02/18 03:50:37;;;;;;;5.65;5.35;;;12.50;99.90;;;;;;4993864;28;20050;-81
2023/02/18 03:53:04;;;;;;;6.00;5.63;;;12.50;99.90;;;;;;4986912;28;20045;-81
2023/02/18 03:55:30;;;;;;;5.95;5.65;;;12.60;99.90;;;;;;4990987;28;20089;-82
2023/02/18 03:57:56;;;;;;;6.10;5.70;;;12.50;99.90;;;;;;4990249;28;20476;-82
2023/02/18 04:00:22;;;;;;;6.25;5.95;;;12.50;99.90;;;;;;4994662;28;20146;-82
2023/02/18 04:02:48;;;;;;;6.07;5.78;;;12.50;99.90;;;;;;4978275;28;20039;-82
2023/02/18 04:05:14;;;;;;;7.38;6.78;;;12.50;99.90;;;;;;4978522;28;20038;-82
2023/02/18 04:07:40;;;;;;;6.57;6.25;;;12.50;99.90;;;;;;5014390;28;20033;-81
2023/02/18 04:10:07;;;;;;;6.70;6.30;;;12.50;99.90;;;;;;4987949;28;20031;-81
2023/02/18 04:12:33;;;;;;;5.45;5.15;;;12.60;99.90;;;;;;4992250;28;20038;-81
2023/02/18 04:14:59;;;;;;;5.75;5.35;;;12.60;99.90;;;;;;4983186;28;20038;-81
2023/02/18 04:17:25;;;;;;;6.07;5.78;;;12.60;99.90;;;;;;4989433;28;20039;-81
2023/02/18 04:19:51;;;;;;;6.68;6.18;;;12.50;99.90;;;;;;5017871;28;20033;-81
2023/02/18 04:22:17;;;;;;;6.10;5.70;;;12.50;99.90;;;;;;5019052;28;20042;-81
2023/02/18 04:24:43;;;;;;;6.88;6.47;;;12.50;99.90;;;;;;5007239;28;20046;-81
2023/02/18 04:27:10;;;;;;;7.03;6.45;;;12.50;99.90;;;;;;5023039;28;20038;-81
2023/02/18 04:29:36;;;;;;;6.60;6.20;;;12.50;99.90;;;;;;5018952;28;20045;-82
2023/02/18 04:32:02;;;;;;;7.22;6.78;;;12.50;99.90;;;;;;4988373;28;20046;-81
2023/02/18 04:34:28;;;;;;;7.75;5.85;;;12.60;99.90;;;;;;5010553;28;20038;-81
2023/02/18 04:36:55;;;;;;;6.80;6.32;;;12.60;99.90;;;;;;5014429;28;20496;-82
2023/02/18 04:39:21;;;;;;;6.30;5.95;;;12.60;99.90;;;;;;4971670;28;20026;-81
2023/02/18 04:41:47;;;;;;;7.22;6.78;;;12.60;99.90;;;;;;4988297;28;20050;-81
2023/02/18 04:44:13;;;;;;;6.63;6.22;;;12.60;99.90;;;;;;4998264;28;20045;-81
2023/02/18 04:46:39;;;;;;;6.35;5.95;;;12.60;99.90;;;;;;4992653;28;20049;-81
2023/02/18 04:49:05;;;;;;;6.78;6.38;;;12.60;99.90;;;;;;4987191;28;20463;-82
2023/02/18 04:51:31;;;;;;;6.43;5.95;;;12.50;99.90;;;;;;5001931;28;20066;-82
2023/02/18 04:53:57;;;;;;;6.95;6.55;;;12.50;99.90;;;;;;4985527;28;20503;-82
2023/02/18 04:56:23;;;;;;;7.68;7.18;;;12.50;99.90;;;;;;4984698;28;20030;-82
2023/02/18 04:58:49;;;;;;;7.47;7.05;;;12.50;99.90;;;;;;5017117;28;20369;-80
2023/02/18 05:01:15;;;;;;;7.55;7.05;;;12.40;99.90;;;;;;5003512;28;20034;-82
2023/02/18 05:03:44;;;;;;;6.75;6.35;;;12.40;99.90;;;;;;5010188;28;20048;-80
2023/02/18 05:06:10;;;;;;;6.70;6.25;;;12.40;99.90;;;;;;5012853;28;20065;-81
2023/02/18 05:08:37;;;;;;;6.50;6.07;;;12.30;99.90;;;;;;5010467;28;20037;-82
2023/02/18 05:11:07;;;;;;;6.40;6.00;;;12.40;99.90;;;;;;5016592;28;20529;-83
2023/02/18 05:13:34;;;;;;;7.18;6.68;;;12.40;99.90;;;;;;4999501;28;20030;-83
2023/02/18 05:16:00;;;;;;;6.78;6.18;;;12.30;99.90;;;;;;5014392;28;20045;-83
2023/02/18 05:18:26;;;;;;;727.42;93.45;;;12.20;99.90;;;;;;5024112;28;20030;-82
2023/02/18 05:20:52;;;;;;;7.40;6.50;;;12.20;99.90;;;;;;5042149;28;20046;-82
2023/02/18 05:23:20;;;;;;;844.67;82.15;;;12.20;99.90;;;;;;5000285;28;20494;-82
2023/02/18 05:25:46;;;;;;;121.15;15.30;;;12.20;99.90;;;;;;5011641;28;20104;-82
2023/02/18 05:28:12;;;;;;;9.38;8.70;;;12.30;99.90;;;;;;5003112;28;20080;-81
2023/02/18 05:30:38;;;;;;;165.80;16.42;;;12.20;99.90;;;;;;5007059;28;20056;-82
2023/02/18 05:33:04;;;;;;;8.75;8.05;;;12.30;99.90;;;;;;5008085;28;20033;-81
2023/02/18 05:35:30;;;;;;;48.90;8.38;;;12.20;99.90;;;;;;5039413;28;20037;-81
2023/02/18 05:37:56;;;;;;;6.82;6.22;;;12.20;99.90;;;;;;5037038;28;20038;-82
2023/02/18 05:40:23;;;;;;;6.47;6.07;;;12.30;99.90;;;;;;5006459;28;20041;-82
2023/02/18 05:42:49;;;;;;;97.65;9.27;;;12.20;99.90;;;;;;5016254;28;20057;-82
2023/02/18 05:45:15;;;;;;;6.10;5.70;;;12.30;99.90;;;;;;5013979;28;20030;-82
2023/02/18 05:47:41;;;;;;;9.30;5.93;;;12.20;99.90;;;;;;5014465;28;20037;-82
2023/02/18 05:50:07;;;;;;;5.75;5.38;;;12.10;99.90;;;;;;5035491;28;20034;-82
2023/02/18 05:52:33;;;;;;;6.13;5.68;;;12.20;99.90;;;;;;5007995;28;20045;-82
2023/02/18 05:54:59;;;;;;;6.18;5.72;;;12.10;99.90;;;;;;5035322;28;20037;-82
2023/02/18 05:57:25;;;;;;;6.18;5.57;;;12.20;99.90;;;;;;5036241;28;20038;-83
2023/02/18 05:59:52;;;;;;;212.98;16.67;;;12.00;99.90;;;;;;4996581;28;20022;-83
2023/02/18 06:02:18;;;;;;;7.28;6.78;;;12.10;99.90;;;;;;5004499;28;20057;-83
2023/02/18 06:04:44;;;;;;;6.38;5.82;;;12.00;99.90;;;;;;5041526;28;20586;-83
2023/02/18 06:07:10;;;;;;;7.82;7.10;;;11.90;99.90;;;;;;5038936;28;20042;-83
2023/02/18 06:09:36;;;;;;;7.00;6.50;;;11.90;99.90;;;;;;5003318;28;22671;-82
2023/02/18 06:12:02;;;;;;;6.97;6.57;;;12.00;99.90;;;;;;5002136;28;20048;-83
2023/02/18 06:14:28;;;;;;;7.68;7.03;;;12.00;99.90;;;;;;5004966;28;20030;-83
2023/02/18 06:16:54;;;;;;;15.00;8.18;;;12.00;99.90;;;;;;5008428;28;20037;-83
2023/02/18 06:19:20;;;;;;;260.60;22.27;;;12.00;99.90;;;;;;5000473;28;20038;-85
2023/02/18 06:21:47;;;;;;;37.10;9.18;;;12.00;99.90;;;;;;5006746;28;20419;-84
2023/02/18 06:24:13;;;;;;;461.02;29.55;;;12.00;99.90;;;;;;5011033;28;20026;-85
2023/02/18 06:26:39;;;;;;;8.20;7.60;;;12.10;99.90;;;;;;5001145;28;20033;-84
2023/02/18 06:29:05;;;;;;;8.95;8.25;;;12.10;99.90;;;;;;5004297;28;20027;-84
2023/02/18 06:31:31;;;;;;;8.63;8.02;;;12.10;99.90;;;;;;4997514;28;20056;-85
2023/02/18 06:33:57;;;;;;;8.80;7.95;;;12.10;99.90;;;;;;5001540;28;20027;-84
2023/02/18 06:36:23;;;;;;;9.02;8.23;;;12.10;99.90;;;;;;5008805;28;20052;-85
2023/02/18 06:38:49;;;;;;;17.63;9.13;;;12.10;99.90;;;;;;5001531;28;20034;-84
2023/02/18 06:41:15;;;;;;;9.25;8.60;;;12.10;99.90;;;;;;4999498;28;20364;-85
2023/02/18 06:43:41;;;;;;;9.07;8.38;;;12.10;99.90;;;;;;5007522;28;20463;-84
2023/02/18 06:46:08;;;;;;;9.45;8.60;;;12.20;99.90;;;;;;5006179;28;20037;-84
2023/02/18 06:48:34;;;;;;;8.88;8.15;;;12.20;99.90;;;;;;4999532;28;20026;-84
2023/02/18 06:51:00;;;;;;;8.35;7.63;;;12.20;99.90;;;;;;5013214;28;20037;-84
2023/02/18 06:53:26;;;;;;;9.27;8.43;;;12.20;99.90;;;;;;5009872;28;20028;-84
2023/02/18 06:55:52;;;;;;;8.98;8.30;;;12.20;99.90;;;;;;5000629;28;20030;-84
2023/02/18 06:58:18;;;;;;;9.68;8.93;;;12.10;99.90;;;;;;5039682;28;20025;-84
2023/02/18 07:00:44;;;;;;;10.10;9.20;;;12.10;99.90;;;;;;5008099;28;20045;-84
2023/02/18 07:03:12;;;;;;;9.60;8.90;;;12.10;99.90;;;;;;5009204;28;20047;-84
2023/02/18 07:05:38;;;;;;;9.93;9.13;;;12.10;99.90;;;;;;5032168;28;20057;-84
2023/02/18 07:08:04;;;;;;;9.68;8.98;;;12.10;99.90;;;;;;5040998;28;20422;-84
2023/02/18 07:10:30;;;;;;;9.73;8.95;;;12.10;99.90;;;;;;5039499;28;20530;-84
2023/02/18 07:12:56;;;;;;;9.77;8.95;;;12.10;99.90;;;;;;4999218;28;20041;-85
2023/02/18 07:15:23;;;;;;;9.23;8.27;;;12.10;99.90;;;;;;5027113;28;20050;-84
2023/02/18 07:17:52;;;;;;;9.90;8.98;;;12.10;99.90;;;;;;5007518;28;20034;-84
2023/02/18 07:20:19;;;;;;;9.63;8.93;;;12.20;99.90;;;;;;5008463;28;20483;-84
2023/02/18 07:22:45;;;;;;;9.57;8.93;;;12.20;99.90;;;;;;5003906;28;20040;-84
2023/02/18 07:25:11;;;;;;;9.27;8.57;;;12.20;99.90;;;;;;5002802;28;20038;-84
2023/02/18 07:27:37;;;;;;;8.57;7.88;;;12.20;99.90;;;;;;5003819;28;20565;-84
2023/02/18 07:30:04;;;;;;;9.20;8.50;;;12.20;99.90;;;;;;5012068;28;20022;-84
2023/02/18 07:32:30;;;;;;;227.50;21.73;;;12.10;99.90;;;;;;5000576;28;20046;-84
2023/02/18 07:34:56;;;;;;;9.00;8.20;;;12.20;99.90;;;;;;5037089;28;20033;-84
2023/02/18 07:37:22;;;;;;;8.40;7.60;;;12.20;99.90;;;;;;5002241;28;20391;-84
2023/02/18 07:39:49;;;;;;;8.57;7.70;;;12.30;99.90;;;;;;5028373;28;20025;-84
2023/02/18 07:42:15;;;;;;;8.18;7.47;;;12.30;99.90;;;;;;5004969;28;20049;-84
2023/02/18 07:44:41;;;;;;;8.15;7.43;;;12.30;99.90;;;;;;5038923;28;20046;-84
2023/02/18 07:47:07;;;;;;;9.00;8.10;;;12.30;99.90;;;;;;5002519;28;20042;-85
2023/02/18 07:49:33;;;;;;;9.05;8.30;;;12.30;99.90;;;;;;5015118;28;20030;-83
2023/02/18 07:51:59;;;;;;;9.40;8.60;;;12.30;99.90;;;;;;5045576;28;20042;-84
2023/02/18 07:54:26;;;;;;;9.68;8.73;;;12.30;99.90;;;;;;5005664;28;20033;-84
2023/02/18 07:56:52;;;;;;;8.80;8.10;;;12.30;99.90;;;;;;5040459;28;20041;-84
2023/02/18 07:59:18;;;;;;;9.45;8.75;;;12.30;99.90;;;;;;5003151;28;20034;-84
2023/02/18 08:01:44;;;;;;;9.32;8.60;;;12.30;99.90;;;;;;5007065;28;20494;-83
2023/02/18 08:04:10;;;;;;;8.05;7.53;;;12.30;99.90;;;;;;5006940;28;20026;-84
2023/02/18 08:06:41;;;;;;;8.95;8.35;;;12.30;99.90;;;;;;5007398;28;20387;-84
2023/02/18 08:09:07;;;;;;;9.68;8.95;;;12.30;99.90;;;;;;5039461;28;20027;-83
2023/02/18 08:11:33;;;;;;;7.55;6.95;;;12.30;99.90;;;;;;5007706;28;20050;-83
2023/02/18 08:13:59;;;;;;;7.70;7.10;;;12.30;99.90;;;;;;5002499;28;20037;-84
2023/02/18 08:16:26;;;;;;;33.42;8.20;;;12.40;99.90;;;;;;5034477;28;20034;-82
2023/02/18 08:18:52;;;;;;;7.82;7.20;;;12.40;99.90;;;;;;5035877;28;20053;-86
2023/02/18 08:21:19;;;;;;;8.27;7.68;;;12.30;99.90;;;;;;5014044;28;20034;-83
2023/02/18 08:23:45;;;;;;;7.63;6.93;;;12.30;99.90;;;;;;5010032;28;20490;-83
2023/02/18 08:26:11;;;;;;;8.55;7.78;;;12.30;99.90;;;;;;5010887;28;20034;-87
2023/02/18 08:28:37;;;;;;;7.20;6.70;;;12.30;99.90;;;;;;4995520;28;20034;-85
2023/02/18 08:31:04;;;;;;;7.80;7.30;;;12.30;99.90;;;;;;4993341;28;20061;-85
2023/02/18 08:33:30;;;;;;;11.07;8.10;;;12.30;99.90;;;;;;5004626;28;20057;-86
2023/02/18 08:35:56;;;;;;;10.15;7.25;;;12.40;99.90;;;;;;4994536;28;20504;-87
2023/02/18 08:38:22;;;;;;;6.40;6.00;;;12.30;99.90;;;;;;5025722;28;20041;-83
2023/02/18 08:40:48;;;;;;;6.80;6.40;;;12.30;99.90;;;;;;5005051;28;20041;-83
2023/02/18 08:43:15;;;;;;;7.32;6.63;;;12.40;99.90;;;;;;5006757;28;20030;-84
2023/02/18 08:45:42;;;;;;;11.18;6.60;;;12.30;99.90;;;;;;5036585;28;20043;-82
2023/02/18 08:48:08;;;;;;;7.40;6.93;;;12.30;99.90;;;;;;5015806;28;20106;-85
2023/02/18 08:50:34;;;;;;;316.25;35.72;;;12.30;99.90;;;;;;5038244;28;20045;-84
2023/02/18 08:53:02;;;;;;;6.45;5.97;;;12.30;99.90;;;;;;5010877;28;20046;-83
2023/02/18 08:55:32;;;;;;;5.78;5.30;;;12.40;99.90;;;;;;5022918;28;20050;-90
2023/02/18 08:57:58;;;;;;;7.75;5.95;;;12.30;99.90;;;;;;4996884;28;20038;-81
2023/02/18 09:00:25;;;;;;;8.50;8.00;;;12.40;99.90;;;;;;5007714;28;20026;-80
2023/02/18 09:02:51;;;;;;;3.95;3.65;;;12.30;99.90;;;;;;5013482;28;20209;-81
2023/02/18 09:05:17;;;;;;;3.75;3.55;;;12.10;99.90;;;;;;5001976;28;20031;-82
2023/02/18 09:07:43;;;;;;;4.40;4.10;;;12.10;99.90;;;;;;4997257;28;20030;-82
2023/02/18 09:10:09;;;;;;;3.60;3.40;;;12.10;99.90;;;;;;5013842;28;20041;-80
2023/02/18 09:12:35;;;;;;;3.70;3.40;;;12.10;99.90;;;;;;5015285;28;20033;-82
2023/02/18 09:15:02;;;;;;;6.03;4.05;;;12.00;99.90;;;;;;5015852;28;20537;-84
2023/02/18 09:17:28;;;;;;;4.18;3.92;;;12.00;99.90;;;;;;5002855;28;20053;-84
2023/02/18 09:19:54;;;;;;;4.38;3.97;;;12.00;99.90;;;;;;5002592;28;20475;-84
2023/02/18 09:22:20;;;;;;;4.47;4.18;;;12.00;99.90;;;;;;5037250;28;20046;-82
2023/02/18 09:24:46;;;;;;;4.50;4.20;;;12.00;99.90;;;;;;5012515;28;20034;-82
2023/02/18 09:27:12;;;;;;;3.42;3.22;;;12.10;99.90;;;;;;5013707;28;20499;-84
2023/02/18 09:29:39;;;;;;;3.15;3.05;;;12.20;99.90;;;;;;5014815;28;20029;-85
2023/02/18 09:32:05;;;;;;;3.40;3.20;;;12.10;99.90;;;;;;5008645;28;20061;-89
2023/02/18 09:34:31;;;;;;;3.03;2.90;;;12.10;99.90;;;;;;5028783;28;20033;-87
2023/02/18 09:36:58;;;;;;;3.00;2.90;;;12.10;99.90;;;;;;5014179;28;20034;-84
2023/02/18 09:39:25;;;;;;;3.40;3.10;;;12.20;99.90;;;;;;5008417;28;20521;-87
2023/02/18 09:42:02;;;;;;;3.88;3.67;;;12.30;99.90;;;;;;5037067;28;20040;-81
2023/02/18 09:44:37;;;;;;;5.43;3.63;;;12.50;99.90;;;;;;5012038;28;20033;-83
2023/02/18 09:47:14;;;;;;;3.65;3.38;;;12.50;99.90;;;;;;5002819;28;20045;-83
2023/02/18 09:49:44;;;;;;;3.60;3.40;;;12.60;99.90;;;;;;5006535;28;20081;-83
2023/02/18 09:52:33;;;;;;;3.30;3.10;;;12.50;99.90;;;;;;5019624;28;20098;-83
2023/02/18 09:55:18;;;;;;;3.70;3.50;;;12.50;99.90;;;;;;5013186;28;20018;-83
2023/02/18 09:57:49;;;;;;;3.80;3.50;;;12.50;99.90;;;;;;5034511;28;20042;-82
2023/02/18 10:00:19;;;;;;;30.23;4.95;;;12.60;99.90;;;;;;5030292;28;20026;-93
2023/02/18 10:02:56;;;;;;;3.20;2.97;;;12.60;99.90;;;;;;5012746;28;20030;-83
2023/02/18 10:05:23;;;;;;;3.13;2.92;;;12.70;99.90;;;;;;5029693;28;20411;-83
2023/02/18 10:07:50;;;;;;;3.00;2.80;;;12.70;99.90;;;;;;5002957;28;20046;-81
2023/02/18 10:10:30;;;;;;;3.67;3.40;;;12.70;99.90;;;;;;5012812;28;20098;-81
2023/02/18 10:12:56;;;;;;;3.40;3.20;;;12.80;99.90;;;;;;5030461;28;20060;-81
2023/02/18 10:15:24;;;;;;;3.60;3.40;;;12.80;99.90;;;;;;5016723;28;20038;-82
2023/02/18 10:17:50;;;;;;;3.10;2.90;;;12.80;99.90;;;;;;4988396;28;20046;-81
2023/02/18 10:20:18;;;;;;;4.32;3.40;;;12.80;99.90;;;;;;5013363;28;20058;-81
2023/02/18 10:22:45;;;;;;;3.05;2.85;;;12.80;99.90;;;;;;5007414;28;20049;-83
2023/02/18 10:25:15;;;;;;;400.08;40.22;;;12.80;99.90;;;;;;5014175;28;20488;-81
2023/02/18 10:27:41;;;;;;;2.65;2.55;;;12.80;99.90;;;;;;5022106;28;20033;-82
2023/02/18 10:30:26;;;;;;;3.05;2.85;;;12.50;99.90;;;;;;5043831;28;20128;-80
2023/02/18 10:33:07;;;;;;;3.67;3.42;;;12.50;99.90;;;;;;5011636;28;20402;-80
2023/02/18 10:35:40;;;;;;;3.72;3.45;;;12.60;99.90;;;;;;5033918;28;20041;-83
2023/02/18 10:38:15;;;;;;;4.93;4.53;;;12.60;99.90;;;;;;5041771;28;20038;-82
2023/02/18 10:40:52;;;;;;;4.20;3.80;;;12.70;99.90;;;;;;5015383;28;20026;-94
2023/02/18 10:43:38;;;;;;;4.70;4.32;;;12.70;99.90;;;;;;5023692;28;20026;-93
2023/02/18 10:46:27;;;;;;;4.05;3.75;;;12.70;99.90;;;;;;5013656;28;20045;-94
2023/02/18 10:49:30;;;;;;;3.40;3.10;;;12.80;99.90;;;;;;5023625;28;20038;-92
2023/02/18 10:51:57;;;;;;;4.50;4.18;;;13.00;99.90;;;;;;4991182;28;20057;-90
2023/02/18 10:54:24;;;;;;;4.15;3.85;;;13.00;99.90;;;;;;4959868;28;20034;-88
2023/02/18 10:56:51;;;;;;;4.15;3.85;;;13.00;99.90;;;;;;4971680;28;20054;-88
2023/02/18 10:59:32;;;;;;;4.50;4.10;;;12.90;99.90;;;;;;4965369;28;20054;-87
2023/02/18 11:02:12;;;;;;;4.13;3.83;;;13.00;99.90;;;;;;4958853;28;20038;-89
2023/02/18 11:04:40;;;;;;;7.50;6.55;;;13.10;99.90;;;;;;4960621;28;20431;-91
2023/02/18 11:07:14;;;;;;;4.80;4.40;;;13.10;99.90;;;;;;4956646;28;20049;-90
2023/02/18 11:09:53;;;;;;;5.07;4.63;;;13.10;99.90;;;;;;4978671;28;20035;-88
2023/02/18 11:12:24;;;;;;;5.32;4.85;;;13.20;99.90;;;;;;4950288;28;20526;-85
2023/02/18 11:15:09;;;;;;;6.13;5.63;;;13.30;99.90;;;;;;4974695;28;20033;-87
2023/02/18 11:17:38;;;;;;;6.72;6.07;;;13.30;99.90;;;;;;4989270;28;20046;-86
2023/02/18 11:20:31;;;;;;;6.38;5.78;;;13.20;99.90;;;;;;4958111;28;20415;-86
2023/02/18 11:23:06;;;;;;;7.47;6.72;;;13.10;99.90;;;;;;4987374;28;20035;-87
2023/02/18 11:25:34;;;;;;;6.40;5.80;;;13.20;99.90;;;;;;4988290;28;20046;-86
2023/02/18 11:28:02;;;;;;;7.20;6.60;;;13.20;99.90;;;;;;4973664;28;20030;-88
2023/02/18 11:30:42;;;;;;;6.88;6.10;;;13.30;99.90;;;;;;4990150;28;20034;-88
2023/02/18 11:33:13;;;;;;;7.03;6.38;;;13.40;99.90;;;;;;4991504;28;20042;-89
2023/02/18 11:35:39;;;;;;;6.70;6.10;;;13.40;99.90;;;;;;4990592;28;20030;-87
2023/02/18 11:38:44;;;;;;;6.78;6.18;;;13.50;99.90;;;;;;4963517;28;20373;-84
2023/02/18 11:41:15;;;;;;;7.82;6.95;;;13.50;99.90;;;;;;4985430;28;20043;-83
2023/02/18 11:43:42;;;;;;;;;;;13.40;99.90;;;;;;5004353;28;20039;-83
2023/02/18 11:46:08;;;;;;;6.63;6.03;;;13.40;99.90;;;;;;5036637;28;20005;-83
2023/02/18 11:48:34;;;;;;;7.50;6.80;;;13.40;99.90;;;;;;5026006;28;20026;-83
2023/02/18 11:51:01;;;;;;;7.60;6.90;;;13.40;99.90;;;;;;5041755;28;20022;-84
2023/02/18 11:53:34;;;;;;;7.28;6.68;;;13.40;99.90;;;;;;5041830;28;20041;-81
2023/02/18 11:56:03;;;;;;;10.65;9.65;;;13.40;99.90;;;;;;5011228;28;20032;-81
2023/02/18 11:58:42;;;;;;;11.55;9.20;;;13.30;99.90;;;;;;5009941;28;20040;-83
2023/02/18 12:01:26;;;;;;;10.52;9.52;;;13.20;99.90;;;;;;5013604;28;20476;-83
2023/02/18 12:03:59;;;;;;;6.93;6.22;;;13.00;99.90;;;;;;5008608;28;20030;-83
2023/02/18 12:06:29;;;;;;;7.93;7.22;;;13.00;99.90;;;;;;5035052;28;20030;-83
2023/02/18 12:09:05;;;;;;;9.48;8.68;;;13.00;99.90;;;;;;5012721;28;20045;-87
2023/02/18 12:11:34;;;;;;;8.60;7.88;;;13.10;99.90;;;;;;5015808;28;20395;-87
2023/02/18 12:14:00;;;;;;;8.15;7.43;;;13.20;99.90;;;;;;5027163;28;20600;-85
2023/02/18 12:16:45;;;;;;;7.70;6.90;;;13.10;99.90;;;;;;5011441;28;20038;-84
2023/02/18 12:19:48;;;;;;;9.02;8.23;;;13.10;99.90;;;;;;4995712;28;20034;-83
2023/02/18 12:22:49;;;;;;;7.75;6.95;;;13.10;99.90;;;;;;5007558;28;20061;-88
2023/02/18 12:25:43;;;;;;;8.63;7.82;;;13.20;99.90;;;;;;4992557;28;20034;-85
2023/02/18 12:28:39;;;;;;;8.68;7.97;;;13.20;99.90;;;;;;5023626;28;20038;-82
2023/02/18 12:31:24;;;;;;;7.40;6.72;;;13.20;99.90;;;;;;5040486;28;20038;-83
2023/02/18 12:34:32;;;;;;;8.32;7.63;;;13.20;99.90;;;;;;5024663;28;20052;-85
2023/02/18 12:37:11;;;;;;;8.30;7.55;;;13.20;99.90;;;;;;5025438;28;20022;-85
2023/02/18 12:40:13;;;;;;;7.50;6.90;;;13.20;99.90;;;;;;5047195;28;20030;-85
2023/02/18 12:42:51;;;;;;;;;;;13.30;99.90;;;;;;5030579;28;20376;-85
2023/02/18 12:45:17;;;;;;;7.10;6.40;;;13.40;99.90;;;;;;5015257;28;20293;-85
2023/02/18 12:47:49;;;;;;;7.85;7.15;;;13.40;99.90;;;;;;5034183;28;20043;-84
2023/02/18 12:50:34;;;;;;;9.75;8.85;;;13.40;99.90;;;;;;5013000;28;21328;-86
2023/02/18 12:53:16;;;;;;;7.88;6.85;;;13.20;99.90;;;;;;5031412;28;20045;-81
2023/02/18 12:55:55;;;;;;;7.78;7.07;;;13.20;99.90;;;;;;5025990;28;20041;-83
2023/02/18 12:58:40;;;;;;;9.35;8.38;;;13.20;99.90;;;;;;5033793;28;20098;-83